createdAt,value
2017-09-20T00:02:00.561Z,28.50
2017-09-20T00:07:02.623Z,30.47
2017-09-20T00:12:04.692Z,29.70
2017-09-20T00:17:14.414Z,27.47
2017-09-20T00:22:16.453Z,26.70
2017-09-20T00:27:18.471Z,26.87
2017-09-20T00:32:20.519Z,27.07
2017-09-20T00:37:22.563Z,25.20
2017-09-20T00:42:24.627Z,25.57
2017-09-20T00:47:26.652Z,23.90
2017-09-20T00:52:28.653Z,24.17
2017-09-20T00:57:31.611Z,22.60
2017-09-20T01:02:33.662Z,22.60
2017-09-20T01:07:35.675Z,22.30
2017-09-20T01:12:37.672Z,20.30
2017-09-20T01:17:40.437Z,21.00
2017-09-20T01:23:01.190Z,20.60
2017-09-20T01:28:03.245Z,20.10
2017-09-20T01:33:05.377Z,20.80
2017-09-20T01:38:07.465Z,22.07
2017-09-20T01:43:09.542Z,21.30
2017-09-20T01:48:11.545Z,22.30
2017-09-20T01:53:13.513Z,21.83
2017-09-20T01:58:15.517Z,24.30
2017-09-20T02:03:17.501Z,24.90
2017-09-20T02:08:19.481Z,23.33
2017-09-20T02:13:22.420Z,23.33
2017-09-20T02:18:24.519Z,21.30
2017-09-20T02:23:26.455Z,23.43
2017-09-20T02:28:28.488Z,21.33
2017-09-20T02:33:30.444Z,20.63
2017-09-20T02:38:33.487Z,20.00
2017-09-20T02:43:35.507Z,20.40
2017-09-20T02:48:37.536Z,18.30
2017-09-20T02:53:39.550Z,17.70
2017-09-20T02:58:42.355Z,17.90
2017-09-20T03:03:44.342Z,15.67
2017-09-20T03:08:46.299Z,17.97
2017-09-20T03:13:50.974Z,16.83
2017-09-20T03:18:53.440Z,17.60
2017-09-20T03:23:58.884Z,16.47
2017-09-20T03:29:01.068Z,15.30
2017-09-20T03:34:03.101Z,15.80
2017-09-20T03:39:06.016Z,15.43
2017-09-20T03:44:08.030Z,15.53
2017-09-20T03:49:12.112Z,15.13
2017-09-20T03:54:24.600Z,14.60
2017-09-20T03:59:31.848Z,13.63
2017-09-20T04:04:39.288Z,13.90
2017-09-20T04:09:46.137Z,15.70
2017-09-20T04:14:51.875Z,13.70
2017-09-20T04:19:57.262Z,16.07
2017-09-20T04:24:59.572Z,15.50
2017-09-20T04:30:05.131Z,15.10
2017-09-20T04:35:09.653Z,15.47
2017-09-20T04:40:13.574Z,14.40
2017-09-20T04:45:19.506Z,14.37
2017-09-20T04:50:25.722Z,13.70
2017-09-20T04:55:27.721Z,13.43
2017-09-20T05:00:34.484Z,12.73
2017-09-20T05:05:42.369Z,13.40
2017-09-20T05:10:47.908Z,14.33
2017-09-20T05:15:52.922Z,14.40
2017-09-20T05:20:57.291Z,14.90
2017-09-20T05:26:04.328Z,15.33
2017-09-20T05:31:09.751Z,16.50
2017-09-20T05:36:14.732Z,17.40
2017-09-20T05:41:19.642Z,20.47
2017-09-20T05:46:26.197Z,17.10
2017-09-20T05:51:33.301Z,17.67
2017-09-20T05:56:40.610Z,19.43
2017-09-20T06:01:49.151Z,18.73
2017-09-20T06:06:56.263Z,20.33
2017-09-20T06:12:03.900Z,19.63
2017-09-20T06:17:16.544Z,20.43
2017-09-20T06:22:23.109Z,20.73
2017-09-20T06:27:27.498Z,21.93
2017-09-20T06:32:31.443Z,21.80
2017-09-20T06:37:35.828Z,22.60
2017-09-20T07:21:21.372Z,21.40
2017-09-20T07:26:26.015Z,17.10
2017-09-20T07:31:32.848Z,16.30
2017-09-20T07:36:38.333Z,13.73
2017-09-20T07:41:46.738Z,13.43
2017-09-20T07:46:52.116Z,15.10
2017-09-20T07:51:57.754Z,12.93
2017-09-20T07:57:05.767Z,12.87
2017-09-20T08:02:15.075Z,10.30
2017-09-20T08:07:21.850Z,8.90
2017-09-20T08:12:28.814Z,8.80
2017-09-20T08:17:33.591Z,9.27
2017-09-20T08:22:41.107Z,7.57
2017-09-20T08:27:46.029Z,7.17
2017-09-20T08:32:52.398Z,4.90
2017-09-20T08:37:57.929Z,5.07
2017-09-20T08:43:03.879Z,5.70
2017-09-20T08:53:21.713Z,6.00
2017-09-20T08:58:29.656Z,5.77
2017-09-20T09:03:35.869Z,5.10
2017-09-20T09:08:40.582Z,5.90
2017-09-20T09:13:46.019Z,8.23
2017-09-20T09:18:51.978Z,7.57
2017-09-20T09:23:59.354Z,8.20
2017-09-20T09:29:06.387Z,8.90
2017-09-20T09:34:11.795Z,11.30
2017-09-20T09:39:16.027Z,10.30
2017-09-20T09:44:20.918Z,9.93
2017-09-20T09:49:25.857Z,10.00
2017-09-20T09:54:29.438Z,9.80
2017-09-20T09:59:34.388Z,11.17
2017-09-20T10:04:39.451Z,10.90
2017-09-20T10:09:42.784Z,9.23
2017-09-20T10:14:47.721Z,8.83
2017-09-20T10:19:54.077Z,8.30
2017-09-20T10:24:58.726Z,8.30
2017-09-20T10:30:05.662Z,8.00
2017-09-20T10:35:11.727Z,8.03
2017-09-20T10:40:17.610Z,8.10
2017-09-20T10:45:22.689Z,5.80
2017-09-20T10:50:29.821Z,3.63
2017-09-20T10:55:39.306Z,4.90
2017-09-20T11:00:46.075Z,4.13
2017-09-20T11:05:52.302Z,4.00
2017-09-20T11:10:58.404Z,4.83
2017-09-20T11:16:03.497Z,5.80
2017-09-20T11:21:08.827Z,5.63
2017-09-20T11:26:16.569Z,6.50
2017-09-20T11:31:23.451Z,6.20
2017-09-20T11:36:28.581Z,7.40
2017-09-20T11:41:34.743Z,5.40
2017-09-20T11:46:41.777Z,6.50
2017-09-20T11:51:48.536Z,7.47
2017-09-20T11:56:56.201Z,7.27
2017-09-20T12:02:02.254Z,7.30
2017-09-20T12:07:10.734Z,5.97
2017-09-20T12:12:17.725Z,5.20
2017-09-20T12:17:27.900Z,6.17
2017-09-20T12:22:37.042Z,5.03
2017-09-20T12:27:44.354Z,4.60
2017-09-20T12:32:49.176Z,5.00
2017-09-20T12:37:54.822Z,4.30
2017-09-20T12:42:59.780Z,4.47
2017-09-20T12:48:02.617Z,4.00
2017-09-20T12:53:07.200Z,4.80
2017-09-20T12:58:09.446Z,5.37
2017-09-20T13:03:14.772Z,5.70
2017-09-20T13:08:22.933Z,4.80
2017-09-20T13:13:36.088Z,5.40
2017-09-20T13:18:41.188Z,6.43
2017-09-20T13:23:46.368Z,8.33
2017-09-20T13:28:58.598Z,9.30
2017-09-20T13:34:10.249Z,8.93
2017-09-20T13:39:24.953Z,9.30
2017-09-20T13:44:30.837Z,9.80
2017-09-20T13:49:42.517Z,10.10
2017-09-20T13:54:46.505Z,10.90
2017-09-20T13:59:53.511Z,10.80
2017-09-20T14:04:58.941Z,12.07
2017-09-20T14:10:06.348Z,11.70
2017-09-20T14:15:16.962Z,12.00
2017-09-20T14:20:22.756Z,11.90
2017-09-20T14:25:32.498Z,11.90
2017-09-20T14:30:39.970Z,13.00
2017-09-20T14:35:46.493Z,11.80
2017-09-20T14:40:54.425Z,13.10
2017-09-20T14:46:00.330Z,13.53
2017-09-20T14:51:06.939Z,14.00
2017-09-20T14:56:10.811Z,13.10
2017-09-20T15:01:16.059Z,13.07
2017-09-20T15:06:18.839Z,11.10
2017-09-20T15:11:21.619Z,10.73
2017-09-20T15:16:23.639Z,9.50
2017-09-20T15:21:27.357Z,12.07
2017-09-20T15:26:29.572Z,13.77
2017-09-20T15:31:31.674Z,13.00
2017-09-20T15:36:33.627Z,13.70
2017-09-20T15:41:35.595Z,14.40
2017-09-20T15:46:37.519Z,15.60
2017-09-20T15:51:40.266Z,16.87
2017-09-20T15:56:42.889Z,17.90
2017-09-20T16:01:51.505Z,17.53
2017-09-20T16:06:54.688Z,16.90
2017-09-20T16:11:59.215Z,15.90
2017-09-20T16:17:04.363Z,16.03
2017-09-20T16:22:06.994Z,16.80
2017-09-20T16:27:09.842Z,16.73
2017-09-20T16:32:13.630Z,15.93
2017-09-20T16:37:17.471Z,16.80
2017-09-20T16:42:19.470Z,16.10
2017-09-20T16:47:25.345Z,16.10
2017-09-20T16:52:28.985Z,17.67
2017-09-20T16:57:34.347Z,17.57
2017-09-20T17:02:40.889Z,17.40
2017-09-20T17:07:46.095Z,17.23
2017-09-20T17:12:53.562Z,17.83
2017-09-20T17:17:58.015Z,18.53
2017-09-20T17:23:03.376Z,19.17
2017-09-20T17:28:11.257Z,20.10
2017-09-20T17:33:14.823Z,20.07
2017-09-20T17:38:16.992Z,19.93
2017-09-20T17:43:23.101Z,20.03
2017-09-20T17:48:29.168Z,21.00
2017-09-20T17:53:37.008Z,20.00
2017-09-20T17:58:40.292Z,21.87
2017-09-20T18:03:42.943Z,21.30
2017-09-20T18:08:46.865Z,20.17
2017-09-20T18:13:52.142Z,21.33
2017-09-20T18:18:54.239Z,23.70
2017-09-20T18:23:56.216Z,22.10
2017-09-20T18:29:00.979Z,21.40
2017-09-20T18:34:05.531Z,22.03
2017-09-20T18:39:08.785Z,22.50
2017-09-20T18:44:11.793Z,23.07
2017-09-20T18:49:19.200Z,22.60
2017-09-20T18:54:21.459Z,24.77
2017-09-20T18:59:23.396Z,23.60
2017-09-20T19:04:31.605Z,26.10
2017-09-20T19:09:38.214Z,24.00
2017-09-20T19:14:40.551Z,24.27
2017-09-20T19:19:48.591Z,25.47
2017-09-20T19:24:56.691Z,25.70
2017-09-20T19:29:59.377Z,25.37
2017-09-20T19:35:03.100Z,28.37
2017-09-20T19:40:06.281Z,24.37
2017-09-20T19:45:08.274Z,27.13
2017-09-20T19:50:12.255Z,23.97
2017-09-20T19:55:17.683Z,28.53
2017-09-20T20:00:21.998Z,28.00
2017-09-20T20:05:25.930Z,29.73
2017-09-20T20:10:29.180Z,29.60
2017-09-20T20:15:34.459Z,28.17
2017-09-20T20:20:38.977Z,27.37
2017-09-20T20:25:42.051Z,25.80
2017-09-20T20:30:48.688Z,29.27
2017-09-20T20:35:55.019Z,29.30
2017-09-20T20:41:00.179Z,27.27
2017-09-20T20:46:05.595Z,28.37
2017-09-20T20:51:10.952Z,32.27
2017-09-20T20:56:18.023Z,35.23
2017-09-20T21:01:23.747Z,35.23
2017-09-20T21:06:28.942Z,32.83
2017-09-20T21:11:32.987Z,34.57
2017-09-20T21:16:38.950Z,30.10
2017-09-20T21:21:45.049Z,30.60
2017-09-20T21:26:51.333Z,33.70
2017-09-20T21:31:55.367Z,33.93
2017-09-20T21:37:02.875Z,33.63
2017-09-20T21:42:07.785Z,36.17
2017-09-20T21:47:12.075Z,36.20
2017-09-20T21:52:18.236Z,35.53
2017-09-20T21:57:24.187Z,31.73
2017-09-20T22:02:26.477Z,31.00
2017-09-20T22:07:28.925Z,33.40
2017-09-20T22:12:32.613Z,34.03
2017-09-20T22:17:53.418Z,33.27
2017-09-20T22:23:15.255Z,33.77
2017-09-20T22:28:19.193Z,31.37
2017-09-20T22:33:21.243Z,30.13
2017-09-20T22:38:24.374Z,34.47
2017-09-20T22:43:26.679Z,33.23
2017-09-20T22:48:30.022Z,35.47
2017-09-20T22:53:32.105Z,33.07
2017-09-20T22:58:34.890Z,31.07
2017-09-20T23:03:37.180Z,33.83
2017-09-20T23:08:39.171Z,35.93
2017-09-20T23:13:42.476Z,34.87
2017-09-20T23:18:44.697Z,33.60
2017-09-20T23:23:46.964Z,36.00
2017-09-20T23:28:50.278Z,32.67
2017-09-20T23:33:52.828Z,35.33
2017-09-20T23:38:55.588Z,31.00
2017-09-20T23:43:57.535Z,33.23
2017-09-20T23:49:00.118Z,35.57
2017-09-20T23:54:02.062Z,34.80
2017-09-20T23:59:04.031Z,34.27
